createdAt,value
2022-11-17T00:00:32.212Z,0.43
2022-11-17T00:01:35.704Z,0.57
2022-11-17T00:02:39.180Z,0.00
2022-11-17T00:03:42.375Z,0.00
2022-11-17T00:04:45.453Z,0.00
2022-11-17T00:05:48.632Z,0.43
2022-11-17T00:06:52.371Z,0.57
2022-11-17T00:07:55.712Z,0.43
2022-11-17T00:08:59.217Z,0.00
2022-11-17T00:10:02.385Z,0.00
2022-11-17T00:11:05.773Z,0.00
2022-11-17T00:12:08.949Z,0.00
2022-11-17T00:13:12.135Z,0.00
2022-11-17T00:14:15.524Z,0.00
2022-11-17T00:15:18.812Z,0.71
2022-11-17T00:16:22.196Z,0.57
2022-11-17T00:17:25.554Z,0.00
2022-11-17T00:18:28.667Z,0.00
2022-11-17T00:19:31.944Z,0.00
2022-11-17T00:20:35.433Z,0.00
2022-11-17T00:21:38.819Z,0.00
2022-11-17T00:22:42.611Z,0.00
2022-11-17T00:23:46.320Z,0.25
2022-11-17T00:24:49.898Z,0.00
2022-11-17T00:25:53.088Z,0.00
2022-11-17T00:26:56.262Z,0.43
2022-11-17T00:27:59.341Z,0.00
2022-11-17T00:29:02.526Z,0.00
2022-11-17T00:30:05.602Z,0.00
2022-11-17T00:31:08.786Z,0.00
2022-11-17T00:32:12.272Z,0.00
2022-11-17T00:33:15.864Z,0.00
2022-11-17T00:34:19.167Z,0.00
2022-11-17T00:35:22.435Z,0.00
2022-11-17T00:36:25.818Z,0.00
2022-11-17T00:37:29.223Z,0.00
2022-11-17T00:38:32.695Z,0.00
2022-11-17T00:39:35.889Z,0.00
2022-11-17T00:40:39.276Z,0.00
2022-11-17T00:41:42.753Z,0.00
2022-11-17T00:42:46.041Z,0.43
2022-11-17T00:43:49.530Z,0.57
2022-11-17T00:44:52.922Z,0.00
2022-11-17T00:45:56.305Z,0.00
2022-11-17T00:46:59.596Z,0.00
2022-11-17T00:48:02.875Z,0.00
2022-11-17T00:49:05.859Z,0.00
2022-11-17T00:50:08.939Z,0.00
2022-11-17T00:51:12.724Z,0.00
2022-11-17T00:52:16.002Z,0.00
2022-11-17T00:53:19.188Z,0.00
2022-11-17T00:54:22.383Z,0.00
2022-11-17T00:55:25.828Z,0.00
2022-11-17T00:56:29.352Z,0.00
2022-11-17T00:57:32.749Z,0.00
2022-11-17T00:58:36.541Z,0.00
2022-11-17T00:59:40.024Z,0.00
2022-11-17T01:00:43.611Z,0.43
2022-11-17T01:01:47.149Z,0.00
2022-11-17T01:02:50.400Z,0.00
2022-11-17T01:03:53.872Z,0.00
2022-11-17T01:04:57.265Z,0.00
2022-11-17T01:06:00.442Z,0.00
2022-11-17T01:07:03.693Z,0.00
2022-11-17T01:08:07.012Z,0.00
2022-11-17T01:09:10.091Z,0.00
2022-11-17T01:10:13.685Z,0.00
2022-11-17T01:11:17.580Z,0.00
2022-11-17T01:12:20.973Z,0.00
2022-11-17T01:13:24.350Z,0.00
2022-11-17T01:14:27.748Z,0.00
2022-11-17T01:15:31.546Z,0.00
2022-11-17T01:16:35.232Z,0.00
2022-11-17T01:17:38.537Z,0.43
2022-11-17T01:18:41.920Z,0.57
2022-11-17T01:19:45.318Z,0.00
2022-11-17T01:20:48.677Z,0.86
2022-11-17T01:21:51.751Z,0.57
2022-11-17T01:22:54.945Z,0.17
2022-11-17T01:23:58.020Z,0.33
2022-11-17T01:25:01.507Z,0.00
2022-11-17T01:26:04.493Z,0.00
2022-11-17T01:27:07.674Z,0.00
2022-11-17T01:28:10.754Z,0.33
2022-11-17T01:29:14.037Z,0.14
2022-11-17T01:30:17.332Z,0.00
2022-11-17T01:31:20.903Z,0.00
2022-11-17T01:32:24.189Z,0.00
2022-11-17T01:33:27.182Z,0.00
2022-11-17T01:34:30.256Z,0.00
2022-11-17T01:35:33.343Z,0.00
2022-11-17T01:36:36.506Z,0.43
2022-11-17T01:37:39.583Z,0.00
2022-11-17T01:38:42.890Z,0.00
2022-11-17T01:39:46.088Z,0.00
2022-11-17T01:40:49.347Z,0.14
2022-11-17T01:41:52.421Z,0.57
2022-11-17T01:42:56.123Z,0.00
2022-11-17T01:43:59.474Z,0.00
2022-11-17T01:45:02.576Z,0.00
2022-11-17T01:46:05.754Z,0.00
2022-11-17T01:47:08.735Z,0.00
2022-11-17T01:48:12.124Z,0.00
2022-11-17T01:49:15.404Z,0.00
2022-11-17T01:50:18.585Z,0.00
2022-11-17T01:51:21.563Z,0.43
2022-11-17T01:52:24.746Z,0.57
2022-11-17T01:53:27.868Z,0.00
2022-11-17T01:54:30.904Z,0.33
2022-11-17T01:55:34.228Z,0.67
2022-11-17T01:56:37.482Z,0.00
2022-11-17T01:57:41.542Z,0.00
2022-11-17T01:58:45.383Z,0.00
2022-11-17T01:59:49.108Z,0.00
2022-11-17T02:00:52.464Z,0.00
2022-11-17T02:01:56.397Z,0.00
2022-11-17T02:03:00.567Z,0.00
2022-11-17T02:04:04.339Z,0.00
2022-11-17T02:05:07.644Z,0.00
2022-11-17T02:06:11.124Z,0.00
2022-11-17T02:07:15.067Z,0.00
2022-11-17T02:08:19.328Z,0.00
2022-11-17T02:09:23.619Z,0.75
2022-11-17T02:10:27.135Z,0.75
2022-11-17T02:11:31.037Z,0.14
2022-11-17T02:12:35.035Z,0.13
2022-11-17T02:13:38.281Z,0.00
2022-11-17T02:14:44.073Z,0.00
2022-11-17T02:15:47.649Z,0.00
2022-11-17T02:16:51.331Z,0.00
2022-11-17T02:17:54.801Z,1.00
2022-11-17T02:18:58.953Z,1.00
2022-11-17T02:20:02.647Z,1.00
2022-11-17T02:21:06.524Z,0.43
2022-11-17T02:22:10.222Z,0.00
2022-11-17T02:23:14.084Z,0.00
2022-11-17T02:24:17.100Z,0.00
2022-11-17T02:25:25.709Z,0.00
2022-11-17T02:26:27.325Z,0.13
2022-11-17T02:27:32.550Z,0.50
2022-11-17T02:28:35.575Z,0.00
2022-11-17T02:29:39.883Z,0.00
2022-11-17T02:30:43.783Z,0.25
2022-11-17T02:31:56.323Z,0.14
2022-11-17T02:32:59.449Z,0.50
2022-11-17T02:34:02.643Z,0.00
2022-11-17T02:35:05.820Z,0.43
2022-11-17T02:36:09.012Z,0.57
2022-11-17T02:37:12.283Z,0.43
2022-11-17T02:38:15.461Z,1.00
2022-11-17T02:39:18.873Z,0.57
2022-11-17T02:40:22.353Z,0.43
2022-11-17T02:41:25.823Z,0.57
2022-11-17T02:42:29.110Z,0.00
2022-11-17T02:43:32.613Z,0.00
2022-11-17T02:44:35.984Z,0.00
2022-11-17T02:45:39.372Z,0.00
2022-11-17T02:46:42.667Z,0.00
2022-11-17T02:47:45.941Z,0.00
2022-11-17T02:48:49.354Z,0.00
2022-11-17T02:49:53.230Z,0.43
2022-11-17T02:50:56.825Z,0.14
2022-11-17T02:52:00.310Z,0.00
2022-11-17T02:53:03.505Z,0.00
2022-11-17T02:54:06.576Z,0.00
2022-11-17T02:55:09.749Z,0.00
2022-11-17T02:56:13.243Z,0.33
2022-11-17T02:57:16.741Z,1.00
2022-11-17T02:58:20.322Z,0.43
2022-11-17T02:59:24.110Z,0.43
2022-11-17T03:00:27.303Z,0.00
2022-11-17T03:01:31.122Z,0.43
2022-11-17T03:02:34.390Z,1.00
2022-11-17T03:03:38.108Z,0.57
2022-11-17T03:04:41.561Z,0.00
2022-11-17T03:05:44.846Z,0.00
2022-11-17T03:06:48.252Z,0.00
2022-11-17T03:07:51.407Z,0.14
2022-11-17T03:08:55.000Z,0.00
2022-11-17T03:09:58.401Z,0.43
2022-11-17T03:11:01.672Z,0.57
2022-11-17T03:12:04.861Z,0.00
2022-11-17T03:13:07.937Z,0.00
2022-11-17T03:14:11.031Z,0.00
2022-11-17T03:15:14.088Z,0.00
2022-11-17T03:16:17.167Z,0.33
2022-11-17T03:17:20.362Z,0.67
2022-11-17T03:18:23.440Z,0.00
2022-11-17T03:19:26.513Z,0.00
2022-11-17T03:20:29.560Z,0.00
2022-11-17T03:21:32.666Z,0.00
2022-11-17T03:22:35.779Z,0.00
2022-11-17T03:23:38.854Z,0.00
2022-11-17T03:24:42.121Z,0.86
2022-11-17T03:25:45.415Z,0.57
2022-11-17T03:26:48.594Z,0.29
2022-11-17T03:27:51.760Z,0.00
2022-11-17T03:28:54.947Z,0.00
2022-11-17T03:29:58.030Z,0.00
2022-11-17T03:31:01.206Z,0.00
2022-11-17T03:32:04.251Z,0.29
2022-11-17T03:33:07.264Z,0.00
2022-11-17T03:34:10.446Z,0.00
2022-11-17T03:35:13.636Z,0.00
2022-11-17T03:36:16.918Z,0.00
2022-11-17T03:37:20.208Z,0.43
2022-11-17T03:38:23.696Z,0.57
2022-11-17T03:39:26.866Z,0.00
2022-11-17T03:40:30.298Z,0.00
2022-11-17T03:41:33.754Z,0.43
2022-11-17T03:42:36.929Z,0.50
2022-11-17T03:43:40.282Z,0.33
2022-11-17T03:44:43.392Z,0.67
2022-11-17T03:45:46.681Z,0.43
2022-11-17T03:46:50.371Z,0.14
2022-11-17T03:47:53.684Z,0.43
2022-11-17T03:48:57.146Z,0.57
2022-11-17T03:50:00.219Z,0.29
2022-11-17T03:51:03.200Z,0.14
2022-11-17T03:52:06.398Z,0.43
2022-11-17T03:53:09.572Z,1.00
2022-11-17T03:54:12.852Z,0.57
2022-11-17T03:55:16.241Z,0.14
2022-11-17T03:56:19.752Z,0.43
2022-11-17T03:57:22.915Z,0.43
2022-11-17T03:58:26.212Z,0.29
2022-11-17T03:59:29.371Z,0.86
2022-11-17T04:00:32.533Z,0.00
2022-11-17T04:01:35.847Z,0.00
2022-11-17T04:02:39.129Z,1.00
2022-11-17T04:03:42.315Z,2.00
2022-11-17T04:04:45.693Z,0.43
2022-11-17T04:05:48.846Z,0.43
2022-11-17T04:06:52.461Z,1.00
2022-11-17T04:07:55.647Z,1.00
2022-11-17T04:08:58.832Z,1.00
2022-11-17T04:10:01.907Z,0.57
2022-11-17T04:11:04.989Z,0.00
2022-11-17T04:12:07.960Z,0.00
2022-11-17T04:13:11.574Z,0.00
2022-11-17T04:14:14.749Z,0.00
2022-11-17T04:15:18.134Z,0.00
2022-11-17T04:16:21.329Z,0.43
2022-11-17T04:17:24.495Z,0.57
2022-11-17T04:18:27.483Z,0.67
2022-11-17T04:19:30.660Z,1.00
2022-11-17T04:20:33.930Z,0.57
2022-11-17T04:21:37.009Z,0.00
2022-11-17T04:22:40.510Z,0.00
2022-11-17T04:23:43.777Z,0.14
2022-11-17T04:24:46.857Z,0.29
2022-11-17T04:25:50.109Z,0.29
2022-11-17T04:26:53.341Z,0.00
2022-11-17T04:27:56.532Z,0.29
2022-11-17T04:28:59.801Z,0.57
2022-11-17T04:30:02.872Z,0.00
2022-11-17T04:31:05.954Z,0.43
2022-11-17T04:32:09.030Z,0.67
2022-11-17T04:33:12.221Z,0.00
2022-11-17T04:34:15.399Z,0.00
2022-11-17T04:35:18.706Z,0.00
2022-11-17T04:36:21.948Z,0.43
2022-11-17T04:37:25.098Z,0.57
2022-11-17T04:38:28.325Z,0.00
2022-11-17T04:39:31.608Z,0.00
2022-11-17T04:40:35.000Z,0.00
2022-11-17T04:41:38.420Z,0.00
2022-11-17T04:42:41.766Z,0.00
2022-11-17T04:43:44.862Z,0.00
2022-11-17T04:44:47.931Z,0.00
2022-11-17T04:45:51.016Z,0.00
2022-11-17T04:46:54.400Z,0.43
2022-11-17T04:47:57.381Z,0.57
2022-11-17T04:49:00.459Z,0.00
2022-11-17T04:50:03.645Z,0.43
2022-11-17T04:51:06.826Z,0.57
2022-11-17T04:52:10.113Z,0.00
2022-11-17T04:53:13.287Z,0.00
2022-11-17T04:54:16.373Z,0.00
2022-11-17T04:55:19.545Z,0.00
2022-11-17T04:56:22.638Z,0.00
2022-11-17T04:57:25.835Z,0.00
2022-11-17T04:58:28.646Z,0.00
2022-11-17T04:59:31.582Z,0.00
2022-11-17T05:00:34.738Z,0.00
2022-11-17T05:01:37.821Z,0.00
2022-11-17T05:02:41.242Z,0.00
2022-11-17T05:03:44.390Z,0.00
2022-11-17T05:04:47.779Z,0.29
2022-11-17T05:05:51.059Z,0.00
2022-11-17T05:06:54.321Z,0.00
2022-11-17T05:07:57.502Z,0.00
2022-11-17T05:09:00.716Z,0.14
2022-11-17T05:10:03.789Z,0.00
2022-11-17T05:11:07.045Z,0.00
2022-11-17T05:12:10.049Z,0.00
2022-11-17T05:13:13.157Z,0.00
2022-11-17T05:14:16.419Z,0.00
2022-11-17T05:15:19.704Z,0.00
2022-11-17T05:16:23.477Z,0.57
2022-11-17T05:17:27.277Z,0.00
2022-11-17T05:18:31.288Z,0.00
2022-11-17T05:19:34.972Z,0.00
2022-11-17T05:20:38.870Z,0.13
2022-11-17T05:21:43.277Z,1.00
2022-11-17T05:22:47.174Z,0.50
2022-11-17T05:23:51.135Z,0.00
2022-11-17T05:24:54.770Z,0.00
2022-11-17T05:25:58.666Z,0.00
2022-11-17T05:27:02.160Z,0.00
2022-11-17T05:28:05.758Z,0.00
2022-11-17T05:29:09.651Z,0.00
2022-11-17T05:30:13.547Z,0.43
2022-11-17T05:31:16.729Z,0.14
2022-11-17T05:32:20.651Z,0.86
2022-11-17T05:33:24.112Z,0.75
2022-11-17T05:34:27.536Z,0.43
2022-11-17T05:35:30.790Z,0.57
2022-11-17T05:36:34.377Z,0.00
2022-11-17T05:37:38.174Z,0.00
2022-11-17T05:38:42.098Z,0.00
2022-11-17T05:39:45.943Z,0.37
2022-11-17T05:40:49.972Z,0.43
2022-11-17T05:41:53.358Z,0.00
2022-11-17T05:42:57.369Z,0.00
2022-11-17T05:44:00.903Z,0.43
2022-11-17T05:45:04.640Z,0.29
2022-11-17T05:46:08.239Z,0.00
2022-11-17T05:47:11.753Z,0.00
2022-11-17T05:48:14.868Z,0.00
2022-11-17T05:49:18.088Z,0.29
2022-11-17T05:50:21.885Z,1.00
2022-11-17T05:51:25.545Z,0.57
2022-11-17T05:52:28.863Z,0.00
2022-11-17T05:53:32.272Z,0.00
2022-11-17T05:54:35.844Z,0.00
2022-11-17T05:55:39.146Z,0.00
2022-11-17T05:56:42.578Z,0.00
2022-11-17T05:57:46.321Z,0.00
2022-11-17T05:58:51.129Z,0.00
2022-11-17T05:59:55.128Z,0.00
2022-11-17T06:00:59.145Z,0.50
2022-11-17T06:02:02.731Z,0.00
2022-11-17T06:03:06.207Z,0.14
2022-11-17T06:04:09.647Z,0.00
2022-11-17T06:05:18.748Z,0.00
2022-11-17T06:06:18.318Z,0.00
2022-11-17T06:07:21.723Z,0.00
2022-11-17T06:08:25.394Z,0.43
2022-11-17T06:09:29.098Z,1.00
2022-11-17T06:10:32.885Z,0.88
2022-11-17T06:11:36.410Z,0.00
2022-11-17T06:12:40.074Z,0.00
2022-11-17T06:13:43.980Z,0.00
2022-11-17T06:14:47.984Z,0.00
2022-11-17T06:15:51.762Z,0.50
2022-11-17T06:16:55.735Z,0.57
2022-11-17T06:17:59.367Z,0.00
2022-11-17T06:19:03.164Z,0.00
2022-11-17T06:20:06.244Z,0.00
2022-11-17T06:21:09.740Z,0.00
2022-11-17T06:22:13.515Z,0.43
2022-11-17T06:23:17.314Z,0.50
2022-11-17T06:24:20.504Z,0.00
2022-11-17T06:25:23.986Z,0.57
2022-11-17T06:26:27.371Z,0.00
2022-11-17T06:27:30.656Z,0.00
2022-11-17T06:28:34.011Z,0.00
2022-11-17T06:29:42.433Z,0.43
2022-11-17T06:30:42.145Z,0.88
2022-11-17T06:31:45.852Z,1.00
2022-11-17T06:32:50.159Z,0.57
2022-11-17T06:33:53.847Z,0.00
2022-11-17T06:34:57.435Z,0.00
2022-11-17T06:36:01.847Z,0.00
2022-11-17T06:37:05.745Z,0.00
2022-11-17T06:38:09.850Z,0.00
2022-11-17T06:39:13.144Z,0.00
2022-11-17T06:40:16.579Z,0.00
2022-11-17T06:41:19.905Z,0.00
2022-11-17T06:42:23.500Z,0.00
2022-11-17T06:43:27.190Z,0.00
2022-11-17T06:44:30.781Z,0.43
2022-11-17T06:45:34.169Z,0.50
2022-11-17T06:46:37.660Z,0.43
2022-11-17T06:47:41.050Z,0.57
2022-11-17T06:48:45.051Z,0.43
2022-11-17T06:49:48.334Z,0.50
2022-11-17T06:50:51.713Z,0.00
2022-11-17T06:51:55.005Z,0.00
2022-11-17T06:52:58.600Z,0.00
2022-11-17T06:54:02.047Z,0.43
2022-11-17T06:55:05.346Z,1.00
2022-11-17T06:56:08.758Z,0.57
2022-11-17T06:57:12.150Z,0.00
2022-11-17T06:58:15.865Z,0.00
2022-11-17T06:59:20.056Z,0.00
2022-11-17T07:00:23.729Z,0.00
2022-11-17T07:01:27.582Z,0.00
2022-11-17T07:02:31.331Z,0.00
2022-11-17T07:03:35.408Z,0.43
2022-11-17T07:04:39.350Z,0.50
2022-11-17T07:05:42.647Z,0.00
2022-11-17T07:06:46.733Z,0.00
2022-11-17T07:07:51.030Z,0.25
2022-11-17T07:08:55.029Z,0.00
2022-11-17T07:09:58.926Z,0.00
2022-11-17T07:11:02.450Z,0.00
2022-11-17T07:12:05.766Z,0.00
2022-11-17T07:13:09.262Z,0.00
2022-11-17T07:14:12.658Z,0.00
2022-11-17T07:15:16.590Z,0.00
2022-11-17T07:16:23.505Z,0.00
2022-11-17T07:17:24.691Z,0.00
2022-11-17T07:18:28.220Z,0.50
2022-11-17T07:19:31.868Z,0.14
2022-11-17T07:20:35.664Z,0.00
2022-11-17T07:21:39.359Z,0.00
2022-11-17T07:22:42.948Z,0.00
2022-11-17T07:23:46.700Z,0.00
2022-11-17T07:24:50.850Z,0.50
2022-11-17T07:25:54.692Z,0.50
2022-11-17T07:26:58.345Z,0.00
2022-11-17T07:28:02.238Z,0.00
2022-11-17T07:29:06.030Z,0.00
2022-11-17T07:30:09.746Z,0.00
2022-11-17T07:31:13.248Z,0.50
2022-11-17T07:32:16.700Z,0.57
2022-11-17T07:33:20.502Z,0.00
2022-11-17T07:34:24.612Z,0.00
2022-11-17T07:35:28.416Z,0.00
2022-11-17T07:36:32.391Z,0.00
2022-11-17T07:37:36.302Z,0.00
2022-11-17T07:38:40.401Z,0.00
2022-11-17T07:39:44.097Z,0.00
2022-11-17T07:40:47.367Z,0.00
2022-11-17T07:41:50.871Z,0.00
2022-11-17T07:42:54.359Z,0.00
2022-11-17T07:43:57.949Z,0.00
2022-11-17T07:45:01.748Z,0.00
2022-11-17T07:46:05.560Z,0.50
2022-11-17T07:47:09.561Z,0.57
2022-11-17T07:48:12.906Z,0.00
2022-11-17T07:49:16.532Z,0.00
2022-11-17T07:50:20.123Z,0.00
2022-11-17T07:51:23.796Z,0.00
2022-11-17T07:52:27.241Z,0.00
2022-11-17T07:53:30.995Z,0.00
2022-11-17T07:54:34.561Z,0.00
2022-11-17T07:55:38.174Z,0.00
2022-11-17T07:56:41.869Z,0.00
2022-11-17T07:57:45.667Z,0.00
2022-11-17T07:58:48.849Z,0.00
2022-11-17T07:59:52.219Z,0.00
2022-11-17T08:00:55.564Z,0.00
2022-11-17T08:01:59.105Z,0.00
2022-11-17T08:03:03.017Z,0.00
2022-11-17T08:04:06.672Z,0.00
2022-11-17T08:05:10.302Z,0.00
2022-11-17T08:06:13.777Z,0.00
2022-11-17T08:07:17.390Z,0.50
2022-11-17T08:08:21.199Z,0.29
2022-11-17T08:09:24.772Z,0.00
2022-11-17T08:10:28.816Z,0.00
2022-11-17T08:11:34.188Z,0.00
2022-11-17T08:12:37.788Z,0.00
2022-11-17T08:13:41.592Z,0.00
2022-11-17T08:14:45.592Z,0.00
2022-11-17T08:15:49.788Z,0.00
2022-11-17T08:16:53.512Z,0.50
2022-11-17T08:17:57.074Z,1.29
2022-11-17T08:19:00.892Z,0.00
2022-11-17T08:20:04.258Z,0.14
2022-11-17T08:21:07.848Z,0.57
2022-11-17T08:22:11.403Z,0.00
2022-11-17T08:23:15.254Z,0.43
2022-11-17T08:24:19.341Z,0.25
2022-11-17T08:25:23.549Z,0.00
2022-11-17T08:26:27.067Z,0.00
2022-11-17T08:27:30.628Z,0.00
2022-11-17T08:28:37.820Z,0.00
2022-11-17T08:29:42.239Z,0.00
2022-11-17T08:30:45.906Z,0.00
2022-11-17T08:31:50.017Z,0.00
2022-11-17T08:32:53.808Z,0.00
2022-11-17T08:33:57.416Z,0.00
2022-11-17T08:35:00.990Z,0.43
2022-11-17T08:36:04.291Z,1.00
2022-11-17T08:37:07.660Z,0.00
2022-11-17T08:38:11.065Z,0.00
2022-11-17T08:39:14.532Z,0.43
2022-11-17T08:40:18.870Z,0.57
2022-11-17T08:41:22.129Z,0.00
2022-11-17T08:42:25.720Z,1.00
2022-11-17T08:43:29.238Z,1.57
2022-11-17T08:44:32.411Z,0.57
2022-11-17T08:48:05.604Z,0.37
2022-11-17T08:49:08.976Z,0.50
2022-11-17T08:50:12.364Z,0.57
2022-11-17T08:51:16.160Z,0.00
2022-11-17T08:52:19.955Z,0.00
2022-11-17T08:53:23.739Z,0.43
2022-11-17T08:54:26.930Z,1.00
2022-11-17T08:56:47.080Z,1.50
2022-11-17T08:57:50.425Z,1.00
2022-11-17T08:58:53.893Z,0.67
2022-11-17T08:59:57.414Z,0.00
2022-11-17T09:01:05.144Z,0.43
2022-11-17T09:02:05.863Z,0.50
2022-11-17T09:03:09.256Z,0.00
2022-11-17T09:04:12.973Z,0.43
2022-11-17T09:05:16.392Z,0.75
2022-11-17T09:06:20.474Z,0.14
2022-11-17T09:07:24.127Z,0.50
2022-11-17T09:09:31.885Z,0.50
2022-11-17T09:10:35.338Z,0.00
2022-11-17T09:12:55.291Z,0.00
2022-11-17T09:13:58.912Z,0.43
2022-11-17T09:15:02.424Z,1.00
2022-11-17T09:16:05.895Z,0.33
2022-11-17T09:17:09.165Z,1.00
2022-11-17T09:18:12.461Z,1.00
2022-11-17T09:19:15.953Z,0.57
2022-11-17T09:22:49.874Z,1.00
2022-11-17T09:23:53.154Z,1.00
2022-11-17T09:25:02.521Z,1.00
2022-11-17T09:26:05.979Z,0.88
2022-11-17T09:27:09.147Z,1.00
2022-11-17T09:28:12.635Z,1.00
2022-11-17T09:29:16.335Z,1.00
2022-11-17T09:31:36.080Z,1.37
2022-11-17T09:32:39.495Z,0.50
2022-11-17T09:33:42.884Z,0.00
2022-11-17T09:34:46.404Z,0.43
2022-11-17T09:35:49.716Z,0.57
2022-11-17T09:36:53.148Z,0.43
2022-11-17T09:37:56.749Z,1.00
2022-11-17T09:39:00.333Z,0.50
2022-11-17T09:40:04.332Z,0.43
2022-11-17T09:41:08.247Z,1.00
2022-11-17T09:42:11.511Z,1.29
2022-11-17T09:43:15.004Z,1.57
2022-11-17T09:44:18.388Z,0.43
2022-11-17T09:45:22.389Z,0.43
2022-11-17T09:46:26.009Z,1.43
2022-11-17T09:47:29.573Z,1.14
2022-11-17T09:48:41.019Z,0.62
2022-11-17T09:49:37.880Z,0.50
2022-11-17T09:50:41.166Z,0.00
2022-11-17T09:51:44.456Z,0.00
2022-11-17T09:52:48.056Z,0.29
2022-11-17T09:53:51.950Z,0.43
2022-11-17T09:54:55.223Z,0.57
2022-11-17T09:55:58.924Z,0.33
2022-11-17T09:57:02.334Z,1.00
2022-11-17T09:58:05.895Z,1.00
2022-11-17T09:59:09.732Z,1.00
2022-11-17T10:00:13.088Z,1.00
2022-11-17T10:01:16.708Z,1.00
2022-11-17T10:02:20.629Z,1.00
2022-11-17T10:03:24.058Z,0.88
2022-11-17T10:04:27.862Z,0.43
2022-11-17T10:05:31.650Z,1.50
2022-11-17T10:06:35.046Z,1.43
2022-11-17T10:07:38.377Z,1.57
2022-11-17T10:08:41.714Z,1.00
2022-11-17T10:09:45.113Z,1.00
2022-11-17T10:10:48.283Z,0.43
2022-11-17T10:11:51.660Z,1.00
2022-11-17T10:12:55.212Z,1.43
2022-11-17T10:13:58.541Z,2.00
2022-11-17T10:15:01.921Z,2.00
2022-11-17T10:16:05.104Z,1.29
2022-11-17T10:17:09.624Z,1.00
2022-11-17T10:18:13.113Z,0.37
2022-11-17T10:19:16.702Z,0.43
2022-11-17T10:20:20.094Z,1.00
2022-11-17T10:21:23.281Z,1.00
2022-11-17T10:22:26.674Z,2.14
2022-11-17T10:23:30.257Z,2.14
2022-11-17T10:24:33.629Z,0.50
2022-11-17T10:25:36.826Z,0.00
2022-11-17T10:26:40.710Z,0.29
2022-11-17T10:27:44.305Z,0.43
2022-11-17T10:28:48.103Z,1.00
2022-11-17T10:29:51.486Z,1.43
2022-11-17T10:30:55.088Z,2.00
2022-11-17T10:31:58.390Z,1.57
2022-11-17T10:33:02.162Z,1.00
2022-11-17T10:34:05.653Z,1.43
2022-11-17T10:35:09.034Z,1.14
2022-11-17T10:36:12.359Z,0.43
2022-11-17T10:37:15.709Z,1.43
2022-11-17T10:38:19.913Z,1.43
2022-11-17T10:39:23.101Z,1.00
2022-11-17T10:40:26.520Z,0.57
2022-11-17T10:41:29.876Z,0.43
2022-11-17T10:42:33.456Z,1.00
2022-11-17T10:43:37.362Z,1.00
2022-11-17T10:44:41.567Z,1.00
2022-11-17T10:45:44.948Z,1.50
2022-11-17T10:46:48.434Z,1.57
2022-11-17T10:47:51.777Z,1.00
2022-11-17T10:48:55.315Z,1.00
2022-11-17T10:49:58.617Z,1.14
2022-11-17T10:51:02.090Z,1.00
2022-11-17T10:52:05.272Z,1.00
2022-11-17T10:53:12.580Z,1.00
2022-11-17T10:54:13.275Z,0.50
2022-11-17T10:55:16.764Z,0.86
2022-11-17T10:56:20.048Z,1.57
2022-11-17T10:57:23.554Z,1.00
2022-11-17T10:58:26.645Z,1.00
2022-11-17T10:59:30.102Z,1.43
2022-11-17T11:00:33.497Z,2.00
2022-11-17T11:01:36.757Z,1.86
2022-11-17T11:02:39.957Z,1.00
2022-11-17T11:03:43.964Z,1.00
2022-11-17T11:12:19.552Z,1.00
2022-11-17T11:13:23.347Z,0.43
2022-11-17T11:14:26.834Z,1.43
2022-11-17T11:15:30.013Z,1.57
2022-11-17T11:16:33.298Z,1.00
2022-11-17T11:17:36.892Z,1.00
2022-11-17T11:18:40.688Z,1.00
2022-11-17T11:19:44.073Z,1.00
2022-11-17T11:20:47.361Z,1.43
2022-11-17T11:21:50.952Z,0.86
2022-11-17T11:22:54.745Z,0.29
2022-11-17T11:23:58.345Z,0.50
2022-11-17T11:25:02.141Z,1.00
2022-11-17T11:26:05.685Z,1.50
2022-11-17T11:27:08.911Z,1.57
2022-11-17T11:28:12.507Z,1.43
2022-11-17T11:29:15.889Z,2.00
2022-11-17T11:30:19.324Z,0.71
2022-11-17T11:31:22.772Z,0.00
2022-11-17T11:32:26.379Z,1.00
2022-11-17T11:33:30.349Z,1.00
2022-11-17T11:34:34.151Z,1.00
2022-11-17T11:35:37.850Z,1.50
2022-11-17T11:36:41.329Z,1.43
2022-11-17T11:37:44.845Z,1.00
2022-11-17T11:38:48.618Z,1.00
2022-11-17T11:39:52.207Z,1.00
2022-11-17T11:40:55.703Z,1.00
2022-11-17T11:42:01.004Z,1.00
2022-11-17T11:43:03.740Z,1.37
2022-11-17T11:44:07.494Z,1.43
2022-11-17T11:45:10.779Z,1.00
2022-11-17T11:46:14.061Z,1.00
2022-11-17T11:47:17.348Z,0.57
2022-11-17T11:48:21.046Z,1.43
2022-11-17T11:49:24.947Z,1.57
2022-11-17T11:50:28.329Z,0.50
2022-11-17T11:51:31.613Z,0.86
2022-11-17T11:52:35.282Z,1.14
2022-11-17T11:53:38.687Z,0.57
2022-11-17T11:54:46.224Z,0.00
2022-11-17T11:55:47.212Z,0.50
2022-11-17T11:56:50.693Z,0.57
2022-11-17T11:57:54.071Z,0.43
2022-11-17T11:58:57.955Z,1.29
2022-11-17T12:00:04.457Z,2.00
2022-11-17T12:01:06.218Z,1.37
2022-11-17T12:02:09.694Z,1.00
2022-11-17T12:03:13.112Z,1.00
2022-11-17T12:04:16.353Z,2.00
2022-11-17T12:05:19.839Z,1.67
2022-11-17T12:06:23.640Z,1.50
2022-11-17T12:07:27.078Z,2.00
2022-11-17T12:08:30.605Z,1.57
2022-11-17T12:09:34.101Z,0.43
2022-11-17T12:10:37.892Z,1.00
2022-11-17T12:11:41.287Z,1.00
2022-11-17T12:12:44.870Z,1.29
2022-11-17T12:13:53.803Z,1.00
2022-11-17T12:14:53.080Z,1.00
2022-11-17T12:15:56.817Z,1.00
2022-11-17T12:17:00.362Z,1.00
2022-11-17T12:18:04.050Z,1.43
2022-11-17T12:19:07.546Z,2.00
2022-11-17T12:20:14.498Z,2.00
2022-11-17T12:21:15.414Z,1.50
2022-11-17T12:22:18.732Z,0.43
2022-11-17T12:23:22.324Z,1.00
2022-11-17T12:24:25.914Z,1.00
2022-11-17T12:25:29.507Z,1.00
2022-11-17T12:26:33.231Z,0.57
2022-11-17T12:27:36.794Z,0.50
2022-11-17T12:28:40.531Z,1.00
2022-11-17T12:29:44.178Z,0.86
2022-11-17T12:30:47.361Z,0.57
2022-11-17T12:31:51.052Z,0.86
2022-11-17T12:32:54.444Z,1.86
2022-11-17T12:33:57.793Z,1.00
2022-11-17T12:35:01.337Z,1.00
2022-11-17T12:36:04.908Z,1.43
2022-11-17T12:37:08.605Z,2.00
2022-11-17T12:38:11.888Z,1.57
2022-11-17T12:39:15.170Z,0.57
2022-11-17T12:40:18.355Z,0.43
2022-11-17T12:41:21.735Z,1.00
2022-11-17T12:42:25.123Z,1.00
2022-11-17T12:43:28.394Z,1.00
2022-11-17T12:44:31.590Z,1.29
2022-11-17T12:45:39.027Z,1.14
2022-11-17T12:46:39.517Z,1.50
2022-11-17T12:47:43.325Z,2.14
2022-11-17T12:48:46.761Z,1.00
2022-11-17T12:49:49.871Z,1.43
2022-11-17T12:50:53.349Z,1.57
2022-11-17T12:51:56.626Z,1.00
2022-11-17T12:52:59.815Z,1.00
2022-11-17T12:54:02.990Z,0.57
2022-11-17T12:55:06.482Z,0.43
2022-11-17T12:56:09.763Z,1.00
2022-11-17T12:57:12.959Z,1.00
2022-11-17T12:58:16.403Z,1.43
2022-11-17T12:59:20.345Z,1.57
2022-11-17T13:00:23.625Z,1.43
2022-11-17T13:01:27.263Z,1.67
2022-11-17T13:02:30.904Z,1.00
2022-11-17T13:03:34.295Z,1.00
2022-11-17T13:04:37.776Z,1.00
2022-11-17T13:05:41.272Z,1.14
2022-11-17T13:06:44.666Z,0.83
2022-11-17T13:07:48.143Z,1.29
2022-11-17T13:08:51.850Z,2.00
2022-11-17T13:09:55.301Z,2.00
2022-11-17T13:10:58.815Z,2.00
2022-11-17T13:12:02.307Z,1.50
2022-11-17T13:13:05.829Z,1.00
2022-11-17T13:14:09.691Z,1.43
2022-11-17T13:15:13.003Z,1.50
2022-11-17T13:16:16.160Z,1.00
2022-11-17T13:17:19.344Z,1.00
2022-11-17T13:18:22.734Z,2.33
2022-11-17T13:19:26.627Z,2.57
2022-11-17T13:20:30.115Z,2.00
2022-11-17T13:21:36.277Z,2.00
2022-11-17T13:22:41.754Z,2.00
2022-11-17T13:23:42.432Z,1.50
2022-11-17T13:24:45.795Z,1.43
2022-11-17T13:25:49.199Z,2.29
2022-11-17T13:26:52.727Z,2.43
2022-11-17T13:28:01.220Z,2.57
2022-11-17T13:29:00.822Z,2.00
2022-11-17T13:30:04.722Z,2.00
2022-11-17T13:31:07.984Z,1.50
2022-11-17T13:32:11.261Z,2.29
2022-11-17T13:33:14.548Z,2.67
2022-11-17T13:34:17.655Z,2.17
2022-11-17T13:35:21.027Z,3.67
2022-11-17T13:36:24.392Z,2.57
2022-11-17T13:37:27.889Z,2.29
2022-11-17T13:38:31.374Z,3.00
2022-11-17T13:39:34.758Z,2.14
2022-11-17T13:40:38.114Z,1.57
2022-11-17T13:41:41.333Z,2.00
2022-11-17T13:42:44.714Z,2.14
2022-11-17T13:43:48.206Z,1.43
2022-11-17T13:44:51.392Z,2.00
2022-11-17T13:45:54.777Z,2.00
2022-11-17T13:46:58.265Z,2.29
2022-11-17T13:48:01.651Z,1.86
2022-11-17T13:49:05.146Z,1.00
2022-11-17T13:50:08.591Z,1.43
2022-11-17T13:51:12.497Z,1.00
2022-11-17T13:52:15.629Z,2.00
2022-11-17T13:53:18.890Z,2.14
2022-11-17T13:54:22.068Z,2.00
2022-11-17T13:55:25.364Z,1.67
2022-11-17T13:56:29.256Z,2.00
2022-11-17T13:57:32.743Z,2.00
2022-11-17T13:58:36.241Z,2.00
2022-11-17T13:59:39.930Z,2.00
2022-11-17T14:00:43.626Z,2.00
2022-11-17T14:01:47.527Z,2.00
2022-11-17T14:02:51.006Z,2.00
2022-11-17T14:03:54.802Z,2.75
2022-11-17T14:04:58.193Z,1.57
2022-11-17T14:06:01.677Z,1.43
2022-11-17T14:07:05.295Z,2.43
2022-11-17T14:08:08.757Z,2.75
2022-11-17T14:09:12.250Z,2.57
2022-11-17T14:10:15.532Z,2.43
2022-11-17T14:11:18.570Z,2.43
2022-11-17T14:12:22.020Z,2.33
2022-11-17T14:13:25.494Z,1.50
2022-11-17T14:14:28.986Z,2.00
2022-11-17T14:15:32.335Z,2.43
2022-11-17T14:16:35.749Z,3.00
2022-11-17T14:17:39.413Z,2.57
2022-11-17T14:18:42.502Z,2.00
2022-11-17T14:19:45.597Z,1.57
2022-11-17T14:20:48.883Z,1.00
2022-11-17T14:21:52.127Z,1.14
2022-11-17T14:22:55.459Z,1.67